Time;durP1;ratioP1;P1;durP2;ratioP2;P2;SDS_P1;SDS_P2;PMS_P1;PMS_P2;Temp;Humidity;BMP_temperature;BMP_pressure;BME280_temperature;BME280_humidity;BME280_pressure;Samples;Min_cycle;Max_cycle;Signal;HPM_P1;HPM_P2
2022/05/28 00:02:27;;;;;;;;;;;;;;;13.80;55.79;101007.94;5008228;28;99142;-69
2022/05/28 00:04:53;;;;;;;;;;;;;;;13.31;56.92;101005.72;5008551;28;98203;-69
2022/05/28 00:07:19;;;;;;;;;;;;;;;13.47;57.12;100993.50;5009925;28;96938;-68
2022/05/28 00:09:45;;;;;;;;;;;;;;;13.59;56.76;100990.28;5010130;28;98879;-69
2022/05/28 00:12:12;;;;;;;;;;;;;;;13.43;56.73;100992.78;5009999;28;99052;-68
2022/05/28 00:14:39;;;;;;;;;;;;;;;13.57;56.35;100992.16;5009647;28;97214;-69
2022/05/28 00:17:06;;;;;;;;;;;;;;;13.82;55.50;100983.97;5006812;28;96805;-69
2022/05/28 00:19:33;;;;;;;;;;;;;;;13.75;56.17;100985.19;5010228;28;99499;-68
2022/05/28 00:22:00;;;;;;;;;;;;;;;13.83;55.73;100986.56;5010074;28;98923;-68
2022/05/28 00:24:27;;;;;;;;;;;;;;;13.48;56.66;100979.28;5009734;28;96760;-69
2022/05/28 00:26:53;;;;;;;;;;;;;;;13.49;56.67;100975.72;5009994;28;96955;-69
2022/05/28 00:29:20;;;;;;;;;;;;;;;13.04;57.52;100979.38;5009857;28;99227;-68
2022/05/28 00:31:46;;;;;;;;;;;;;;;13.20;57.58;100973.44;5009865;28;97610;-70
2022/05/28 00:34:12;;;;;;;;;;;;;;;13.19;57.04;100974.41;5010257;28;96937;-69
2022/05/28 00:36:40;;;;;;;;;;;;;;;13.73;56.09;100968.44;5001077;28;98412;-68
2022/05/28 00:39:06;;;;;;;;;;;;;;;13.79;55.76;100976.13;5000669;28;99187;-68
2022/05/28 00:41:33;;;;;;;;;;;;;;;12.99;58.09;100970.75;5003459;28;99354;-69
2022/05/28 00:44:00;;;;;;;;;;;;;;;12.93;58.68;100960.38;4999576;28;97366;-68
2022/05/28 00:46:27;;;;;;;;;;;;;;;13.50;57.25;100964.16;5006817;28;96987;-67
2022/05/28 00:48:55;;;;;;;;;;;;;;;13.61;56.78;100961.88;5008489;28;101837;-68
2022/05/28 00:51:25;;;;;;;;;;;;;;;13.48;57.05;100958.06;5008458;28;96871;-68
2022/05/28 00:53:54;;;;;;;;;;;;;;;13.69;56.24;100957.09;5001158;28;98623;-68
2022/05/28 00:56:22;;;;;;;;;;;;;;;13.66;56.25;100961.69;5002467;28;99090;-68
2022/05/28 00:58:49;;;;;;;;;;;;;;;13.37;57.27;100955.00;4998122;28;98886;-69
2022/05/28 01:01:16;;;;;;;;;;;;;;;13.41;56.56;100941.53;4993797;28;98900;-68
2022/05/28 01:03:52;;;;;;;;;;;;;;;12.79;57.92;100938.91;5000267;28;96905;-68
2022/05/28 01:06:22;;;;;;;;;;;;;;;13.47;56.85;100945.72;5005012;28;97613;-68
2022/05/28 01:08:50;;;;;;;;;;;;;;;13.27;57.48;100943.06;5001008;28;98839;-69
2022/05/28 01:11:21;;;;;;;;;;;;;;;13.46;56.82;100934.22;4993386;28;97937;-67
2022/05/28 01:13:51;;;;;;;;;;;;;;;12.96;58.11;100927.56;4990640;28;97584;-68
2022/05/28 01:16:22;;;;;;;;;;;;;;;13.69;55.70;100935.84;4993227;28;97060;-68
2022/05/28 01:18:51;;;;;;;;;;;;;;;13.41;56.78;100935.34;4999403;28;101288;-68
2022/05/28 01:21:24;;;;;;;;;;;;;;;13.28;56.99;100937.69;5007306;28;99161;-68
2022/05/28 01:23:53;;;;;;;;;;;;;;;13.61;55.86;100932.69;5007096;28;96903;-68
2022/05/28 01:26:24;;;;;;;;;;;;;;;13.62;55.61;100934.41;4997868;28;98724;-69
2022/05/28 01:28:56;;;;;;;;;;;;;;;13.95;54.86;100921.38;4995533;28;99190;-68
2022/05/28 01:31:23;;;;;;;;;;;;;;;13.31;55.85;100924.31;5006566;28;98687;-69
2022/05/28 01:33:50;;;;;;;;;;;;;;;13.64;55.58;100919.28;5001752;28;97238;-68
2022/05/28 01:36:18;;;;;;;;;;;;;;;13.42;55.80;100919.38;5006550;28;97278;-68
2022/05/28 01:38:45;;;;;;;;;;;;;;;13.57;55.58;100917.84;5007164;28;99053;-68
2022/05/28 01:41:12;;;;;;;;;;;;;;;13.86;54.74;100911.16;5009406;28;100737;-69
2022/05/28 01:43:40;;;;;;;;;;;;;;;13.23;56.58;100906.97;5009355;28;97770;-69
2022/05/28 01:46:08;;;;;;;;;;;;;;;12.94;57.08;100908.19;5011995;28;96898;-68
2022/05/28 01:48:36;;;;;;;;;;;;;;;12.62;58.96;100905.09;5009230;28;98917;-68
2022/05/28 01:51:03;;;;;;;;;;;;;;;12.75;57.71;100892.19;5010562;28;98359;-68
2022/05/28 01:56:14;;;;;;;;;;;;;;;13.01;56.41;100888.44;5002162;28;96896;-68
2022/05/28 01:58:41;;;;;;;;;;;;;;;13.40;55.62;100893.81;5000965;28;99882;-68
2022/05/28 02:01:09;;;;;;;;;;;;;;;12.67;57.53;100879.25;5012075;28;99225;-67
2022/05/28 02:03:39;;;;;;;;;;;;;;;13.16;57.11;100883.38;5007143;28;97769;-67
2022/05/28 02:06:05;;;;;;;;;;;;;;;13.49;55.55;100883.66;5011150;28;96933;-68
2022/05/28 02:08:35;;;;;;;;;;;;;;;12.91;57.23;100879.16;5006420;28;98919;-68
2022/05/28 02:11:06;;;;;;;;;;;;;;;12.79;57.86;100877.91;5006589;28;101479;-68
2022/05/28 02:13:34;;;;;;;;;;;;;;;12.57;58.78;100877.94;5006520;28;96806;-68
2022/05/28 02:16:05;;;;;;;;;;;;;;;12.69;58.85;100879.22;5005359;28;97640;-69
2022/05/28 02:18:37;;;;;;;;;;;;;;;13.16;56.99;100882.50;5002344;28;99594;-67
2022/05/28 02:21:06;;;;;;;;;;;;;;;13.29;56.75;100880.16;5009211;28;97548;-69
2022/05/28 02:23:35;;;;;;;;;;;;;;;13.51;55.83;100868.53;5007468;28;97170;-68
2022/05/28 02:26:05;;;;;;;;;;;;;;;13.09;57.16;100863.31;5007491;28;97960;-68
2022/05/28 02:28:33;;;;;;;;;;;;;;;12.58;58.26;100863.75;5004596;28;98042;-68
2022/05/28 02:31:10;;;;;;;;;;;;;;;12.87;57.68;100865.16;5002178;28;99271;-68
2022/05/28 02:33:38;;;;;;;;;;;;;;;13.37;56.44;100867.44;5003644;28;97068;-68
2022/05/28 02:36:05;;;;;;;;;;;;;;;12.99;57.24;100854.03;5009230;28;96967;-68
2022/05/28 02:38:31;;;;;;;;;;;;;;;13.22;56.89;100857.50;5004893;28;99084;-68
2022/05/28 02:40:57;;;;;;;;;;;;;;;13.09;56.56;100850.03;5006957;28;99106;-68
2022/05/28 02:43:24;;;;;;;;;;;;;;;12.50;58.46;100857.03;5005519;28;96961;-68
2022/05/28 02:45:50;;;;;;;;;;;;;;;13.14;56.96;100857.81;5009718;28;96903;-69
2022/05/28 02:48:16;;;;;;;;;;;;;;;13.42;55.85;100860.13;5002834;28;97869;-69
2022/05/28 02:50:44;;;;;;;;;;;;;;;13.33;55.82;100852.56;5010438;28;98895;-67
2022/05/28 02:53:11;;;;;;;;;;;;;;;13.20;56.48;100848.72;5003576;28;98023;-67
2022/05/28 02:55:37;;;;;;;;;;;;;;;13.49;55.67;100850.94;5007537;28;96895;-67
2022/05/28 02:58:04;;;;;;;;;;;;;;;13.40;55.75;100844.25;5004443;28;98901;-68
2022/05/28 03:00:30;;;;;;;;;;;;;;;12.95;56.03;100847.13;4995097;28;101458;-67
2022/05/28 03:02:56;;;;;;;;;;;;;;;12.77;57.30;100843.50;5003880;28;96798;-68
2022/05/28 03:05:24;;;;;;;;;;;;;;;12.70;57.02;100836.72;5005493;28;97220;-67
2022/05/28 03:07:52;;;;;;;;;;;;;;;12.33;58.67;100844.50;4994458;28;98657;-67
2022/05/28 03:10:18;;;;;;;;;;;;;;;13.00;56.68;100831.88;5011392;28;98947;-69
2022/05/28 03:12:44;;;;;;;;;;;;;;;13.07;56.30;100835.13;5004576;28;97075;-68
2022/05/28 03:15:12;;;;;;;;;;;;;;;12.96;56.54;100826.78;5002885;28;97063;-70
2022/05/28 03:17:38;;;;;;;;;;;;;;;13.19;55.95;100829.31;5001714;28;99924;-67
2022/05/28 03:20:05;;;;;;;;;;;;;;;13.26;55.50;100830.75;5005551;28;97851;-68
2022/05/28 03:22:32;;;;;;;;;;;;;;;13.50;55.02;100829.63;5008553;28;98654;-67
2022/05/28 03:24:59;;;;;;;;;;;;;;;13.51;54.96;100828.72;5003316;28;98795;-68
2022/05/28 03:27:26;;;;;;;;;;;;;;;13.78;54.39;100823.91;5001266;28;99008;-67
2022/05/28 03:29:52;;;;;;;;;;;;;;;13.69;54.09;100826.13;4999644;28;98896;-69
2022/05/28 03:32:18;;;;;;;;;;;;;;;12.98;55.92;100820.50;5002800;28;98374;-68
2022/05/28 03:34:44;;;;;;;;;;;;;;;12.52;58.00;100815.44;5002513;28;99628;-67
2022/05/28 03:37:11;;;;;;;;;;;;;;;12.85;56.95;100816.66;5007380;28;99136;-67
2022/05/28 03:39:37;;;;;;;;;;;;;;;13.26;55.96;100830.75;5008525;28;100654;-67
2022/05/28 03:42:05;;;;;;;;;;;;;;;13.22;55.66;100820.34;5010029;28;96795;-68
2022/05/28 03:44:31;;;;;;;;;;;;;;;13.07;55.45;100814.75;4998846;28;96911;-68
2022/05/28 03:47:00;;;;;;;;;;;;;;;13.37;55.54;100822.31;5005223;27;99264;-68
2022/05/28 03:49:28;;;;;;;;;;;;;;;13.49;54.57;100825.25;5004338;28;98760;-68
2022/05/28 03:51:54;;;;;;;;;;;;;;;13.51;55.03;100820.75;5002767;28;96778;-68
2022/05/28 03:54:20;;;;;;;;;;;;;;;13.45;55.08;100820.16;5005883;28;97196;-68
2022/05/28 03:56:48;;;;;;;;;;;;;;;13.56;54.77;100812.56;5000876;28;100278;-68
2022/05/28 03:59:15;;;;;;;;;;;;;;;13.22;55.07;100807.94;4998817;28;101319;-68
2022/05/28 04:01:42;;;;;;;;;;;;;;;13.07;56.07;100814.75;4997842;28;96821;-68
2022/05/28 04:04:08;;;;;;;;;;;;;;;13.30;55.91;100821.72;4998148;28;96889;-67
2022/05/28 04:06:35;;;;;;;;;;;;;;;13.43;55.00;100822.03;5007450;28;99190;-67
2022/05/28 04:09:01;;;;;;;;;;;;;;;13.92;53.71;100815.25;4997069;28;99097;-68
2022/05/28 04:11:27;;;;;;;;;;;;;;;13.20;54.51;100817.75;5008462;28;98135;-69
2022/05/28 04:13:54;;;;;;;;;;;;;;;13.96;53.59;100809.75;5001155;28;97272;-69
2022/05/28 04:16:22;;;;;;;;;;;;;;;13.81;53.53;100807.81;5006082;28;99256;-69
2022/05/28 04:18:48;;;;;;;;;;;;;;;14.10;52.92;100813.53;5002510;28;98835;-69
2022/05/28 04:21:15;;;;;;;;;;;;;;;14.18;52.50;100816.63;5007020;28;96984;-68
2022/05/28 04:23:41;;;;;;;;;;;;;;;13.78;53.86;100815.09;5004943;28;96989;-68
2022/05/28 04:26:08;;;;;;;;;;;;;;;13.34;57.43;100827.75;5007015;28;98958;-67
2022/05/28 04:28:34;;;;;;;;;;;;;;;13.48;57.58;100831.50;5002175;28;99105;-68
2022/05/28 04:31:00;;;;;;;;;;;;;;;13.42;57.23;100822.94;5000430;28;96998;-67
2022/05/28 04:33:28;;;;;;;;;;;;;;;13.92;57.24;100826.75;5000272;28;98507;-68
2022/05/28 04:35:54;;;;;;;;;;;;;;;13.92;57.24;100826.75;5004662;28;99437;-67
2022/05/28 04:38:20;;;;;;;;;;;;;;;13.84;58.46;100850.19;5005258;28;99505;-67
2022/05/28 04:40:46;;;;;;;;;;;;;;;13.48;59.98;100862.50;5001637;28;97523;-68
2022/05/28 04:43:13;;;;;;;;;;;;;;;13.78;59.61;100861.09;5006210;28;96916;-67
2022/05/28 04:45:39;;;;;;;;;;;;;;;13.56;58.97;100855.03;5005591;28;99054;-67
2022/05/28 04:48:06;;;;;;;;;;;;;;;13.59;58.55;100857.53;5002280;28;99184;-67
2022/05/28 04:50:33;;;;;;;;;;;;;;;13.92;57.30;100853.31;5000026;28;98967;-67
2022/05/28 04:53:00;;;;;;;;;;;;;;;14.27;57.65;100848.97;4998370;28;98521;-70
2022/05/28 04:55:26;;;;;;;;;;;;;;;14.43;57.10;100846.44;5001593;28;101345;-68
2022/05/28 04:57:53;;;;;;;;;;;;;;;14.21;55.70;100843.94;5001454;28;99106;-68
2022/05/28 05:00:21;;;;;;;;;;;;;;;14.08;55.58;100841.94;4994486;28;97168;-68
2022/05/28 05:02:48;;;;;;;;;;;;;;;13.81;56.33;100850.31;5007164;28;97022;-68
2022/05/28 05:05:14;;;;;;;;;;;;;;;14.11;54.79;100852.44;5011447;28;99844;-68
2022/05/28 05:07:42;;;;;;;;;;;;;;;15.47;51.49;100845.41;5009659;28;97912;-68
2022/05/28 05:10:09;;;;;;;;;;;;;;;16.29;50.00;100851.47;5010485;28;97132;-69
2022/05/28 05:12:35;;;;;;;;;;;;;;;15.14;50.83;100855.19;5011003;28;97614;-67
2022/05/28 05:15:01;;;;;;;;;;;;;;;15.73;50.76;100854.69;5002945;28;99012;-68
2022/05/28 05:17:28;;;;;;;;;;;;;;;15.35;51.26;100846.09;5002411;28;98813;-68
2022/05/28 05:19:54;;;;;;;;;;;;;;;14.54;52.56;100852.09;5001588;28;99203;-68
2022/05/28 05:22:20;;;;;;;;;;;;;;;15.38;51.35;100853.88;5003845;28;97558;-67
2022/05/28 05:24:48;;;;;;;;;;;;;;;14.52;52.43;100850.44;5013172;28;99289;-68
2022/05/28 05:27:14;;;;;;;;;;;;;;;14.57;53.26;100857.22;5005611;28;99125;-68
2022/05/28 05:29:40;;;;;;;;;;;;;;;14.30;52.78;100848.81;5003957;28;97041;-68
2022/05/28 05:32:07;;;;;;;;;;;;;;;13.70;54.11;100857.94;5002209;28;96999;-67
2022/05/28 05:34:33;;;;;;;;;;;;;;;13.94;54.33;100850.59;5004357;28;99698;-67
2022/05/28 05:37:00;;;;;;;;;;;;;;;14.26;53.30;100847.22;5009651;28;99119;-68
2022/05/28 05:39:26;;;;;;;;;;;;;;;14.25;54.04;100858.78;5007470;28;96962;-68
2022/05/28 05:41:55;;;;;;;;;;;;;;;13.85;53.46;100849.22;5012065;28;98310;-68
2022/05/28 05:44:21;;;;;;;;;;;;;;;14.06;54.05;100847.34;5007922;28;98387;-68
2022/05/28 05:46:48;;;;;;;;;;;;;;;14.40;53.17;100854.56;5010759;28;98634;-68
2022/05/28 05:49:14;;;;;;;;;;;;;;;14.17;53.81;100853.00;4998108;28;96906;-68
2022/05/28 05:51:42;;;;;;;;;;;;;;;14.41;52.98;100845.66;5010037;28;96859;-68
2022/05/28 05:54:09;;;;;;;;;;;;;;;14.78;52.35;100860.59;5003714;28;101450;-68
2022/05/28 05:56:35;;;;;;;;;;;;;;;14.31;53.39;100854.97;5006564;28;99136;-68
2022/05/28 05:59:02;;;;;;;;;;;;;;;13.87;54.23;100868.59;5008712;28;98808;-67
2022/05/28 06:01:29;;;;;;;;;;;;;;;14.22;53.21;100855.44;5002060;28;98403;-68
2022/05/28 06:03:55;;;;;;;;;;;;;;;14.23;53.89;100865.13;5007628;28;98952;-67
2022/05/28 06:06:22;;;;;;;;;;;;;;;13.56;54.03;100863.00;5009207;28;98730;-68
2022/05/28 06:08:49;;;;;;;;;;;;;;;13.94;53.82;100870.03;5006321;28;96832;-67
2022/05/28 06:11:15;;;;;;;;;;;;;;;13.62;54.16;100881.31;5002062;28;97042;-68
2022/05/28 06:13:41;;;;;;;;;;;;;;;14.24;53.30;100867.69;5003577;28;99160;-67
2022/05/28 06:16:09;;;;;;;;;;;;;;;14.52;51.73;100877.00;5005522;28;101065;-66
2022/05/28 06:18:36;;;;;;;;;;;;;;;14.54;51.06;100878.66;5007686;28;96875;-67
2022/05/28 06:21:02;;;;;;;;;;;;;;;14.73;51.32;100876.81;5009100;28;96823;-68
2022/05/28 06:23:28;;;;;;;;;;;;;;;14.72;50.33;100896.38;5004644;28;99233;-68
2022/05/28 06:25:55;;;;;;;;;;;;;;;14.19;51.47;100892.78;5011062;28;98714;-68
2022/05/28 06:28:22;;;;;;;;;;;;;;;15.11;50.56;100890.81;5007698;28;96850;-70
2022/05/28 06:30:50;;;;;;;;;;;;;;;15.04;50.38;100888.53;5007313;28;98770;-68
2022/05/28 06:33:19;;;;;;;;;;;;;;;15.50;48.92;100903.81;5007532;28;99365;-68
2022/05/28 06:35:45;;;;;;;;;;;;;;;15.11;48.90;100889.94;5006079;28;98006;-68
2022/05/28 06:38:12;;;;;;;;;;;;;;;14.94;49.36;100881.97;5001125;28;97125;-68
2022/05/28 06:40:38;;;;;;;;;;;;;;;15.26;48.75;100889.16;5010446;28;99167;-69
2022/05/28 06:43:04;;;;;;;;;;;;;;;15.22;48.69;100881.41;5001706;28;99080;-68
2022/05/28 06:45:31;;;;;;;;;;;;;;;15.04;49.30;100881.41;5006104;28;98644;-68
2022/05/28 06:47:57;;;;;;;;;;;;;;;15.03;49.71;100870.88;5000985;28;96858;-68
2022/05/28 06:53:09;;;;;;;;;;;;;;;15.19;48.52;100871.78;5002262;28;97169;-68
2022/05/28 06:55:35;;;;;;;;;;;;;;;14.79;49.65;100878.28;5002212;28;98739;-68
2022/05/28 06:58:02;;;;;;;;;;;;;;;14.80;49.80;100873.84;5004622;28;97176;-68
2022/05/28 07:00:28;;;;;;;;;;;;;;;15.60;48.31;100877.59;5004017;28;99587;-69
2022/05/28 07:02:55;;;;;;;;;;;;;;;15.91;47.64;100868.78;5003182;28;97613;-68
2022/05/28 07:05:21;;;;;;;;;;;;;;;15.91;47.56;100863.44;5001983;28;99087;-68
2022/05/28 07:07:48;;;;;;;;;;;;;;;15.60;47.65;100868.75;4999770;28;97849;-69
2022/05/28 07:10:15;;;;;;;;;;;;;;;16.79;45.25;100869.06;5002947;28;96900;-67
2022/05/28 07:12:41;;;;;;;;;;;;;;;17.07;44.48;100871.78;5004543;28;98949;-68
2022/05/28 07:15:08;;;;;;;;;;;;;;;16.07;45.67;100855.47;4996169;28;100916;-67
2022/05/28 07:17:35;;;;;;;;;;;;;;;16.82;44.45;100871.53;5003766;28;96845;-68
2022/05/28 07:20:01;;;;;;;;;;;;;;;16.02;46.35;100869.03;5000616;28;97637;-69
2022/05/28 07:22:28;;;;;;;;;;;;;;;16.66;45.48;100876.94;5001931;28;99787;-68
2022/05/28 07:24:55;;;;;;;;;;;;;;;15.35;47.91;100851.41;5000376;28;98862;-68
2022/05/28 07:27:21;;;;;;;;;;;;;;;15.70;47.97;100873.47;4995339;28;99221;-68
2022/05/28 07:29:48;;;;;;;;;;;;;;;16.10;47.05;100865.94;5005034;28;98794;-68
2022/05/28 07:32:14;;;;;;;;;;;;;;;15.81;46.76;100867.59;4998356;28;99262;-68
2022/05/28 07:34:40;;;;;;;;;;;;;;;15.41;47.63;100875.03;5001993;28;99185;-68
2022/05/28 07:37:06;;;;;;;;;;;;;;;14.82;48.37;100887.94;4998648;28;98696;-69
2022/05/28 07:39:32;;;;;;;;;;;;;;;15.45;47.14;100870.41;4998394;28;97167;-69
2022/05/28 07:42:02;;;;;;;;;;;;;;;15.76;46.72;100875.81;4997113;28;98890;-68
2022/05/28 07:44:29;;;;;;;;;;;;;;;16.42;45.36;100882.78;5002084;28;98496;-67
2022/05/28 07:46:55;;;;;;;;;;;;;;;16.30;44.85;100885.19;4999974;28;96917;-67
2022/05/28 07:49:21;;;;;;;;;;;;;;;16.55;44.38;100878.44;4994231;28;98849;-67
2022/05/28 07:51:48;;;;;;;;;;;;;;;16.60;43.55;100866.63;4997707;28;97652;-68
2022/05/28 07:54:16;;;;;;;;;;;;;;;16.72;43.11;100878.38;5002617;28;98708;-66
2022/05/28 07:56:42;;;;;;;;;;;;;;;17.36;41.73;100866.47;4997036;28;98597;-67
2022/05/28 07:59:10;;;;;;;;;;;;;;;16.74;43.28;100869.31;4997269;28;98465;-68
2022/05/28 08:01:39;;;;;;;;;;;;;;;17.66;41.62;100869.94;4999238;28;97778;-68
2022/05/28 08:04:05;;;;;;;;;;;;;;;17.64;41.32;100869.19;5004982;28;98721;-67
2022/05/28 08:06:32;;;;;;;;;;;;;;;17.08;41.67;100864.63;4997684;28;96953;-68
2022/05/28 08:08:58;;;;;;;;;;;;;;;15.83;44.20;100874.53;4990728;28;97438;-69
2022/05/28 08:11:25;;;;;;;;;;;;;;;16.75;42.27;100872.84;4998938;28;99707;-68
2022/05/28 08:13:52;;;;;;;;;;;;;;;16.13;42.86;100868.44;5004139;27;98827;-68
2022/05/28 08:16:20;;;;;;;;;;;;;;;17.07;41.15;100868.25;4999591;28;97244;-70
2022/05/28 08:18:47;;;;;;;;;;;;;;;16.74;41.92;100863.13;5005086;28;97068;-70
2022/05/28 08:23:57;;;;;;;;;;;;;;;16.76;41.24;100860.38;4992686;28;97441;-68
2022/05/28 08:26:24;;;;;;;;;;;;;;;16.86;41.40;100862.41;4997336;28;97262;-68
2022/05/28 08:28:51;;;;;;;;;;;;;;;15.92;43.23;100867.84;5003147;28;97229;-69
2022/05/28 08:31:18;;;;;;;;;;;;;;;16.88;41.55;100887.19;5004461;28;98664;-68
2022/05/28 08:33:46;;;;;;;;;;;;;;;15.89;42.81;100870.66;5001286;28;98628;-68
2022/05/28 08:36:12;;;;;;;;;;;;;;;16.40;42.02;100874.03;4999545;28;97301;-68
2022/05/28 08:38:39;;;;;;;;;;;;;;;16.14;43.17;100878.16;4992058;28;98147;-68
2022/05/28 08:41:08;;;;;;;;;;;;;;;17.46;41.20;100880.97;4998240;28;98203;-68
2022/05/28 08:43:36;;;;;;;;;;;;;;;16.18;42.17;100875.25;4991573;28;99086;-68
2022/05/28 08:46:03;;;;;;;;;;;;;;;17.42;39.72;100877.66;4996398;28;97518;-68
2022/05/28 08:48:34;;;;;;;;;;;;;;;18.07;38.32;100869.13;5001339;28;98487;-69
2022/05/28 08:51:05;;;;;;;;;;;;;;;17.19;39.31;100869.34;4997882;28;99283;-68
2022/05/28 08:53:34;;;;;;;;;;;;;;;16.59;41.13;100874.69;5001049;28;100057;-68
2022/05/28 08:56:02;;;;;;;;;;;;;;;16.28;43.27;100886.22;4999154;28;97004;-68
2022/05/28 08:58:30;;;;;;;;;;;;;;;16.18;43.26;100879.72;4991530;28;97359;-68
2022/05/28 09:01:00;;;;;;;;;;;;;;;16.68;41.98;100874.16;4987786;28;118435;-69
2022/05/28 09:03:28;;;;;;;;;;;;;;;17.65;39.46;100886.09;5000981;28;99094;-67
2022/05/28 09:05:58;;;;;;;;;;;;;;;18.25;38.49;100883.97;5002371;28;97268;-69
2022/05/28 09:08:27;;;;;;;;;;;;;;;18.17;37.38;100879.16;4993644;28;98736;-68
2022/05/28 09:10:54;;;;;;;;;;;;;;;18.26;37.60;100869.66;4995617;28;99677;-68
2022/05/28 09:13:25;;;;;;;;;;;;;;;17.52;38.52;100875.28;4992556;28;99154;-68
2022/05/28 09:15:52;;;;;;;;;;;;;;;17.57;38.24;100885.66;4991166;28;97111;-68
2022/05/28 09:18:18;;;;;;;;;;;;;;;17.80;37.89;100902.00;5004480;28;96837;-67
2022/05/28 09:20:47;;;;;;;;;;;;;;;17.38;38.05;100905.50;5000729;28;97766;-69
2022/05/28 09:23:14;;;;;;;;;;;;;;;17.91;37.74;100915.56;4997575;28;99048;-68
2022/05/28 09:25:46;;;;;;;;;;;;;;;17.67;37.63;100895.72;4993294;28;96877;-69
2022/05/28 09:28:19;;;;;;;;;;;;;;;18.02;37.50;100909.53;5005677;28;97255;-69
2022/05/28 09:30:51;;;;;;;;;;;;;;;17.08;38.55;100902.00;5007150;28;99071;-67
2022/05/28 09:33:25;;;;;;;;;;;;;;;16.74;38.63;100906.66;5004719;28;99687;-69
2022/05/28 09:35:56;;;;;;;;;;;;;;;17.38;37.79;100902.84;4999250;28;98581;-69
2022/05/28 09:38:28;;;;;;;;;;;;;;;17.34;37.65;100903.09;5004051;28;97287;-69
2022/05/28 09:40:59;;;;;;;;;;;;;;;17.72;37.58;100896.28;5002179;28;99001;-69
2022/05/28 09:43:32;;;;;;;;;;;;;;;18.26;35.99;100885.69;5005932;28;100468;-68
2022/05/28 09:46:03;;;;;;;;;;;;;;;18.73;35.30;100892.44;5006498;28;97189;-69
2022/05/28 09:48:29;;;;;;;;;;;;;;;19.26;34.06;100881.59;5006243;28;96848;-69
2022/05/28 09:50:56;;;;;;;;;;;;;;;17.98;34.47;100888.44;5008083;28;99450;-68
2022/05/28 09:56:11;;;;;;;;;;;;;;;17.41;36.36;100891.09;4998916;28;98664;-68
2022/05/28 09:58:38;;;;;;;;;;;;;;;17.53;36.61;100898.34;4985988;28;99034;-69
2022/05/28 10:01:10;;;;;;;;;;;;;;;17.31;38.41;100916.66;4994165;28;98811;-68
2022/05/28 10:06:23;;;;;;;;;;;;;;;17.90;39.04;100910.31;5010333;28;97563;-68
2022/05/28 10:08:49;;;;;;;;;;;;;;;16.61;42.25;100904.81;5006653;28;97035;-68
2022/05/28 10:11:19;;;;;;;;;;;;;;;17.89;39.44;100912.13;5007546;28;98244;-69
2022/05/28 10:13:46;;;;;;;;;;;;;;;18.32;38.11;100891.50;5007892;28;100813;-68
2022/05/28 10:16:14;;;;;;;;;;;;;;;18.69;36.60;100911.41;5008126;28;97040;-69
2022/05/28 10:18:42;;;;;;;;;;;;;;;18.00;38.11;100903.41;5008039;28;98942;-68
2022/05/28 10:21:10;;;;;;;;;;;;;;;18.11;38.54;100902.75;5002902;28;102078;-67
2022/05/28 10:23:38;;;;;;;;;;;;;;;17.03;40.49;100907.63;5009676;28;99118;-68
2022/05/28 10:26:05;;;;;;;;;;;;;;;17.65;40.05;100904.81;5008128;28;98763;-69
2022/05/28 10:28:34;;;;;;;;;;;;;;;18.49;38.35;100903.78;5003622;28;97079;-67
2022/05/28 10:31:00;;;;;;;;;;;;;;;17.88;38.62;100891.69;5003304;28;100142;-68
2022/05/28 10:33:29;;;;;;;;;;;;;;;18.13;38.14;100892.78;5009803;28;98754;-67
2022/05/28 10:36:06;;;;;;;;;;;;;;;18.60;36.88;100887.91;5002985;28;96839;-68
2022/05/28 10:38:32;;;;;;;;;;;;;;;18.76;36.47;100879.72;5000513;28;98356;-68
2022/05/28 10:41:01;;;;;;;;;;;;;;;19.05;36.70;100878.59;5004947;28;101757;-67
2022/05/28 10:43:29;;;;;;;;;;;;;;;18.56;35.67;100878.38;5007208;28;101250;-68
2022/05/28 10:46:02;;;;;;;;;;;;;;;18.75;36.09;100871.78;5007574;28;97147;-70
2022/05/28 10:48:37;;;;;;;;;;;;;;;18.37;36.36;100877.84;4998320;28;97268;-69
2022/05/28 10:51:11;;;;;;;;;;;;;;;18.48;36.37;100878.00;5004547;28;99092;-67
2022/05/28 10:53:44;;;;;;;;;;;;;;;18.92;35.54;100875.03;5005999;28;98736;-69
2022/05/28 10:56:21;;;;;;;;;;;;;;;18.39;36.58;100883.94;5001043;28;97602;-67
2022/05/28 10:58:51;;;;;;;;;;;;;;;19.07;35.99;100883.84;4999182;28;97998;-67
2022/05/28 11:01:31;;;;;;;;;;;;;;;18.42;35.99;100878.41;4998271;28;100023;-68
2022/05/28 11:04:16;;;;;;;;;;;;;;;18.42;35.64;100881.06;5000033;28;98225;-68
2022/05/28 11:06:51;;;;;;;;;;;;;;;18.21;35.46;100886.00;5001593;28;97345;-68
2022/05/28 11:09:22;;;;;;;;;;;;;;;19.37;34.13;100880.84;5002565;28;97703;-67
2022/05/28 11:11:57;;;;;;;;;;;;;;;18.43;34.22;100874.75;5006742;28;99998;-69
2022/05/28 11:14:32;;;;;;;;;;;;;;;19.25;32.96;100873.66;5006268;28;100372;-68
2022/05/28 11:17:08;;;;;;;;;;;;;;;18.85;33.03;100873.72;5008380;28;97159;-69
2022/05/28 11:19:52;;;;;;;;;;;;;;;19.18;32.80;100875.91;5004015;28;97275;-68
2022/05/28 11:22:28;;;;;;;;;;;;;;;18.91;33.32;100878.66;5009457;28;102280;-67
2022/05/28 11:24:55;;;;;;;;;;;;;;;19.26;33.38;100873.56;5007789;28;98877;-68
2022/05/28 11:27:32;;;;;;;;;;;;;;;18.78;33.02;100875.09;5009929;28;96867;-67
2022/05/28 11:30:03;;;;;;;;;;;;;;;19.16;32.66;100858.25;5010912;28;97047;-67
2022/05/28 11:32:34;;;;;;;;;;;;;;;18.48;33.81;100861.94;5000923;28;99180;-67
2022/05/28 11:35:03;;;;;;;;;;;;;;;18.54;33.91;100864.19;5007734;28;99092;-68
2022/05/28 11:37:32;;;;;;;;;;;;;;;19.73;32.44;100866.72;5007607;28;97219;-68
2022/05/28 11:40:02;;;;;;;;;;;;;;;19.74;32.26;100850.53;5008520;28;97247;-67
2022/05/28 11:42:31;;;;;;;;;;;;;;;19.01;34.22;100876.22;5008090;28;98385;-68
2022/05/28 11:44:59;;;;;;;;;;;;;;;17.84;42.01;100916.06;5007969;28;98776;-67
2022/05/28 11:47:31;;;;;;;;;;;;;;;18.52;43.15;100902.72;5005892;28;97324;-69
2022/05/28 11:52:48;;;;;;;;;;;;;;;18.91;44.10;100907.25;5004714;28;97235;-68
2022/05/28 11:55:17;;;;;;;;;;;;;;;18.28;44.15;100900.69;5001480;28;99040;-68
2022/05/28 11:57:51;;;;;;;;;;;;;;;18.04;44.06;100893.41;5004778;28;96832;-68
2022/05/28 12:00:19;;;;;;;;;;;;;;;17.30;45.30;100904.25;5005271;28;100252;-68
2022/05/28 12:02:48;;;;;;;;;;;;;;;18.00;43.33;100883.84;4999477;28;102468;-67
2022/05/28 12:05:16;;;;;;;;;;;;;;;18.49;43.04;100897.56;5000515;28;99318;-68
2022/05/28 12:07:44;;;;;;;;;;;;;;;18.65;42.27;100892.94;5010571;28;97186;-69
2022/05/28 12:10:13;;;;;;;;;;;;;;;17.85;42.79;100896.41;5004656;28;96845;-69
2022/05/28 12:12:51;;;;;;;;;;;;;;;18.25;41.03;100878.63;5005154;28;101219;-70
2022/05/28 12:15:24;;;;;;;;;;;;;;;18.69;40.69;100876.59;5006757;28;98882;-68
2022/05/28 12:17:58;;;;;;;;;;;;;;;18.92;39.81;100869.66;4999884;28;97018;-69
2022/05/28 12:20:30;;;;;;;;;;;;;;;18.88;38.18;100857.47;5000448;28;97692;-68
2022/05/28 12:22:56;;;;;;;;;;;;;;;19.56;36.94;100864.41;4999882;28;98296;-68
2022/05/28 12:25:31;;;;;;;;;;;;;;;19.02;37.19;100861.88;4994368;28;97572;-68
2022/05/28 12:28:08;;;;;;;;;;;;;;;19.02;37.06;100862.75;5002405;28;96841;-69
2022/05/28 12:30:48;;;;;;;;;;;;;;;18.60;38.16;100877.19;4998357;28;97083;-67
2022/05/28 12:33:19;;;;;;;;;;;;;;;17.79;40.01;100873.56;4995675;28;99108;-67
2022/05/28 12:35:51;;;;;;;;;;;;;;;17.18;43.76;100905.88;4995474;28;99140;-68
2022/05/28 12:38:36;;;;;;;;;;;;;;;17.78;45.09;100925.31;5010511;28;97052;-68
2022/05/28 12:41:04;;;;;;;;;;;;;;;17.53;46.50;100914.38;5000443;28;98920;-67
2022/05/28 12:43:33;;;;;;;;;;;;;;;17.85;45.47;100915.94;5001310;28;98714;-69
2022/05/28 12:46:12;;;;;;;;;;;;;;;18.30;45.25;100911.31;4992578;28;98766;-67
2022/05/28 12:48:39;;;;;;;;;;;;;;;18.65;45.04;100909.00;4999183;28;97181;-67
2022/05/28 12:51:15;;;;;;;;;;;;;;;18.94;42.83;100904.38;4994925;28;96867;-68
2022/05/28 12:53:49;;;;;;;;;;;;;;;18.77;42.77;100907.34;4997403;28;100686;-67
2022/05/28 12:56:21;;;;;;;;;;;;;;;18.54;42.95;100912.38;4995455;28;99968;-67
2022/05/28 12:58:48;;;;;;;;;;;;;;;19.06;41.39;100898.19;5002230;28;96845;-68